createdAt,value
2018-12-07T00:00:24.469Z,78.84
2018-12-07T00:00:59.116Z,78.63
2018-12-07T00:01:33.803Z,78.80
2018-12-07T00:02:09.815Z,79.19
2018-12-07T00:02:44.791Z,79.08
2018-12-07T00:03:19.435Z,79.13
2018-12-07T00:03:54.157Z,79.05
2018-12-07T00:04:28.746Z,79.12
2018-12-07T00:05:04.473Z,78.88
2018-12-07T00:05:39.065Z,79.04
2018-12-07T00:06:13.802Z,78.79
2018-12-07T00:06:48.460Z,78.80
2018-12-07T00:07:23.184Z,78.80
2018-12-07T00:07:57.825Z,78.69
2018-12-07T00:08:32.446Z,78.87
2018-12-07T00:09:07.379Z,79.17
2018-12-07T00:09:41.999Z,78.89
2018-12-07T00:10:16.976Z,79.18
2018-12-07T00:10:51.613Z,79.38
2018-12-07T00:11:26.890Z,79.63
2018-12-07T00:12:01.478Z,79.25
2018-12-07T00:12:36.682Z,79.35
2018-12-07T00:13:11.276Z,79.18
2018-12-07T00:13:46.347Z,78.87
2018-12-07T00:14:20.939Z,78.86
2018-12-07T00:14:55.697Z,78.98
2018-12-07T00:15:30.736Z,79.25
2018-12-07T00:16:05.841Z,79.47
2018-12-07T00:16:40.414Z,79.03
2018-12-07T00:17:15.006Z,79.24
2018-12-07T00:17:49.616Z,79.30
2018-12-07T00:18:24.330Z,79.42
2018-12-07T00:18:59.013Z,79.28
2018-12-07T00:19:33.605Z,79.05
2018-12-07T00:20:09.615Z,79.27
2018-12-07T00:20:44.210Z,79.46
2018-12-07T00:21:18.882Z,79.37
2018-12-07T00:21:54.006Z,79.28
2018-12-07T00:22:28.615Z,79.29
2018-12-07T00:23:03.202Z,79.29
2018-12-07T00:23:37.782Z,79.12
2018-12-07T00:24:12.747Z,79.09
2018-12-07T00:24:47.393Z,78.93
2018-12-07T00:25:23.434Z,78.82
2018-12-07T00:25:58.050Z,79.16
2018-12-07T00:26:32.692Z,79.01
2018-12-07T00:27:07.287Z,78.92
2018-12-07T00:27:41.868Z,78.79
2018-12-07T00:28:16.513Z,79.10
2018-12-07T00:28:51.278Z,78.75
2018-12-07T00:29:26.038Z,78.85
2018-12-07T00:30:00.678Z,79.05
2018-12-07T00:30:35.839Z,78.92
2018-12-07T00:31:10.768Z,78.88
2018-12-07T00:31:45.465Z,78.88
2018-12-07T00:32:20.134Z,78.61
2018-12-07T00:32:54.778Z,78.64
2018-12-07T00:33:29.395Z,78.27
2018-12-07T00:34:04.572Z,78.45
2018-12-07T00:34:39.176Z,78.63
2018-12-07T00:35:14.514Z,78.65
2018-12-07T00:35:49.148Z,78.66
2018-12-07T00:36:23.793Z,78.30
2018-12-07T00:36:58.381Z,78.49
2018-12-07T00:37:33.205Z,78.71
2018-12-07T00:38:07.827Z,78.70
2018-12-07T00:38:42.427Z,78.87
2018-12-07T00:39:17.092Z,78.87
2018-12-07T00:39:51.837Z,79.06
2018-12-07T00:40:26.485Z,79.08
2018-12-07T00:41:01.178Z,79.18
2018-12-07T00:41:35.807Z,78.91
2018-12-07T00:42:10.412Z,79.11
2018-12-07T00:42:45.040Z,78.85
2018-12-07T00:43:19.711Z,78.51
2018-12-07T00:43:54.394Z,78.57
2018-12-07T00:44:28.977Z,78.70
2018-12-07T00:45:04.699Z,78.54
2018-12-07T00:45:39.326Z,78.92
2018-12-07T00:46:13.989Z,78.81
2018-12-07T00:46:48.677Z,78.58
2018-12-07T00:47:23.420Z,78.42
2018-12-07T00:47:58.017Z,78.51
2018-12-07T00:48:32.680Z,78.51
2018-12-07T00:49:07.344Z,78.87
2018-12-07T00:49:41.932Z,78.87
2018-12-07T00:50:16.525Z,78.93
2018-12-07T00:50:51.298Z,78.85
2018-12-07T00:51:25.897Z,79.08
2018-12-07T00:52:00.565Z,78.63
2018-12-07T00:52:35.120Z,78.82
2018-12-07T00:53:09.803Z,78.41
2018-12-07T00:53:44.389Z,78.38
2018-12-07T00:54:18.979Z,78.59
2018-12-07T00:54:53.561Z,78.38
2018-12-07T00:55:38.801Z,78.80
2018-12-07T00:56:13.457Z,78.84
2018-12-07T00:56:48.271Z,78.74
2018-12-07T00:57:22.865Z,78.70
2018-12-07T00:57:57.466Z,78.62
2018-12-07T00:58:32.087Z,78.33
2018-12-07T00:59:06.675Z,78.45
2018-12-07T00:59:41.283Z,78.03
2018-12-07T01:00:15.908Z,78.06
2018-12-07T01:00:50.620Z,78.14
2018-12-07T01:01:25.241Z,78.28
2018-12-07T01:01:59.830Z,77.98
2018-12-07T01:02:34.447Z,78.25
2018-12-07T01:03:09.063Z,78.31
2018-12-07T01:03:43.646Z,78.43
2018-12-07T01:04:18.298Z,78.31
2018-12-07T01:04:52.894Z,78.10
2018-12-07T01:05:27.736Z,78.14
2018-12-07T01:06:02.288Z,78.06
2018-12-07T01:06:36.906Z,78.20
2018-12-07T01:07:11.481Z,78.29
2018-12-07T01:07:46.078Z,77.95
2018-12-07T01:08:20.691Z,78.20
2018-12-07T01:08:55.579Z,78.14
2018-12-07T01:09:30.165Z,78.08
2018-12-07T01:10:06.233Z,78.16
2018-12-07T01:10:41.324Z,78.20
2018-12-07T01:11:15.942Z,77.63
2018-12-07T01:11:50.610Z,78.04
2018-12-07T01:12:25.239Z,78.22
2018-12-07T01:12:59.825Z,78.35
2018-12-07T01:13:34.383Z,78.61
2018-12-07T01:14:09.326Z,78.28
2018-12-07T01:14:44.465Z,78.13
2018-12-07T01:15:19.251Z,77.84
2018-12-07T01:15:53.879Z,78.21
2018-12-07T01:16:28.528Z,78.29
2018-12-07T01:17:03.160Z,78.38
2018-12-07T01:17:37.779Z,78.42
2018-12-07T01:18:12.784Z,77.97
2018-12-07T01:18:47.530Z,78.32
2018-12-07T01:19:22.168Z,78.35
2018-12-07T01:19:56.758Z,78.35
2018-12-07T01:20:31.405Z,78.69
2018-12-07T01:21:06.247Z,78.62
2018-12-07T01:21:41.005Z,78.56
2018-12-07T01:22:22.413Z,78.50
2018-12-07T01:22:57.036Z,78.70
2018-12-07T01:23:32.014Z,78.52
2018-12-07T01:24:06.645Z,78.40
2018-12-07T01:24:41.210Z,78.19
2018-12-07T01:25:15.835Z,78.13
2018-12-07T01:26:20.344Z,78.31
2018-12-07T01:26:55.031Z,78.28
2018-12-07T01:27:29.713Z,78.23
2018-12-07T01:28:04.333Z,78.26
2018-12-07T01:28:38.913Z,78.12
2018-12-07T01:29:13.547Z,78.28
2018-12-07T01:29:48.372Z,78.62
2018-12-07T01:30:23.026Z,78.44
2018-12-07T01:30:57.645Z,78.39
2018-12-07T01:31:32.306Z,78.68
2018-12-07T01:32:07.384Z,78.54
2018-12-07T01:32:42.075Z,78.34
2018-12-07T01:33:16.744Z,78.43
2018-12-07T01:33:51.431Z,78.21
2018-12-07T01:34:26.090Z,78.27
2018-12-07T01:35:00.748Z,78.68
2018-12-07T01:35:35.369Z,78.53
2018-12-07T01:36:10.245Z,78.21
2018-12-07T01:36:44.844Z,78.31
2018-12-07T01:37:19.923Z,78.36
2018-12-07T01:37:54.549Z,78.46
2018-12-07T01:38:29.246Z,78.29
2018-12-07T01:39:06.252Z,78.61
2018-12-07T01:39:40.861Z,78.70
2018-12-07T01:40:15.457Z,78.31
2018-12-07T01:40:50.051Z,78.59
2018-12-07T01:41:24.704Z,78.38
2018-12-07T01:41:59.513Z,78.33
2018-12-07T01:42:34.096Z,77.95
2018-12-07T01:43:08.702Z,77.88
2018-12-07T01:43:43.317Z,77.89
2018-12-07T01:44:18.026Z,77.40
2018-12-07T01:44:52.912Z,77.77
2018-12-07T01:45:27.562Z,77.97
2018-12-07T01:46:02.298Z,78.19
2018-12-07T01:46:36.881Z,78.21
2018-12-07T01:47:11.496Z,78.25
2018-12-07T01:47:46.440Z,78.25
2018-12-07T01:48:21.162Z,78.32
2018-12-07T01:48:55.944Z,78.19
2018-12-07T01:49:30.969Z,78.21
2018-12-07T01:50:06.575Z,78.33
2018-12-07T01:50:41.409Z,78.38
2018-12-07T01:51:16.236Z,78.30
2018-12-07T01:51:50.905Z,78.25
2018-12-07T01:52:25.566Z,78.16
2018-12-07T01:53:00.210Z,78.26
2018-12-07T01:53:34.854Z,78.04
2018-12-07T01:54:09.735Z,78.05
2018-12-07T01:54:44.349Z,78.04
2018-12-07T01:55:19.086Z,78.04
2018-12-07T01:55:53.844Z,77.93
2018-12-07T01:56:28.534Z,78.23
2018-12-07T01:57:03.119Z,78.22
2018-12-07T01:57:37.742Z,78.38
2018-12-07T01:58:12.381Z,78.22
2018-12-07T01:58:47.110Z,78.34
2018-12-07T01:59:21.940Z,78.18
2018-12-07T01:59:56.576Z,78.38
2018-12-07T02:00:32.116Z,78.21
2018-12-07T02:01:06.738Z,78.05
2018-12-07T02:01:41.327Z,77.62
2018-12-07T02:02:16.077Z,77.61
2018-12-07T02:02:50.960Z,77.67
2018-12-07T02:03:25.738Z,77.55
2018-12-07T02:04:00.485Z,77.50
2018-12-07T02:04:35.169Z,77.68
2018-12-07T02:05:10.293Z,77.83
2018-12-07T02:05:44.912Z,77.78
2018-12-07T02:06:19.695Z,77.75
2018-12-07T02:06:54.847Z,77.62
2018-12-07T02:07:34.769Z,77.36
2018-12-07T02:08:09.379Z,77.64
2018-12-07T02:08:44.046Z,77.47
2018-12-07T02:09:19.093Z,77.29
2018-12-07T02:09:53.968Z,77.19
2018-12-07T02:10:28.568Z,77.20
2018-12-07T02:11:03.158Z,77.39
2018-12-07T02:11:37.822Z,77.53
2018-12-07T02:12:12.445Z,77.41
2018-12-07T02:12:47.202Z,77.22
2018-12-07T02:13:21.916Z,77.22
2018-12-07T02:13:56.568Z,77.34
2018-12-07T02:14:31.216Z,77.32
2018-12-07T02:15:07.172Z,77.35
2018-12-07T02:15:41.867Z,77.16
2018-12-07T02:16:16.542Z,77.02
2018-12-07T02:16:51.210Z,77.10
2018-12-07T02:17:25.959Z,77.36
2018-12-07T02:18:00.650Z,77.18
2018-12-07T02:18:35.330Z,77.17
2018-12-07T02:19:09.927Z,77.10
2018-12-07T02:19:44.521Z,77.19
2018-12-07T02:20:19.496Z,77.18
2018-12-07T02:20:54.297Z,77.28
2018-12-07T02:21:28.902Z,77.22
2018-12-07T02:22:04.421Z,77.21
2018-12-07T02:22:39.072Z,77.19
2018-12-07T02:23:13.677Z,77.49
2018-12-07T02:23:48.380Z,77.48
2018-12-07T02:24:23.052Z,77.47
2018-12-07T02:24:57.641Z,77.37
2018-12-07T02:25:32.259Z,77.09
2018-12-07T02:26:06.875Z,76.70
2018-12-07T02:26:41.458Z,77.16
2018-12-07T02:27:16.111Z,77.37
2018-12-07T02:27:56.029Z,77.46
2018-12-07T02:28:30.845Z,77.06
2018-12-07T02:29:05.434Z,76.93
2018-12-07T02:29:40.515Z,76.99
2018-12-07T02:30:15.104Z,77.30
2018-12-07T02:30:49.832Z,77.35
2018-12-07T02:31:24.469Z,77.18
2018-12-07T02:31:59.056Z,77.46
2018-12-07T02:32:33.646Z,77.25
2018-12-07T02:33:08.275Z,77.45
2018-12-07T02:33:43.307Z,77.27
2018-12-07T02:34:18.110Z,77.61
2018-12-07T02:34:52.752Z,77.28
2018-12-07T02:35:27.362Z,77.44
2018-12-07T02:37:05.111Z,77.56
2018-12-07T02:37:39.720Z,77.71
2018-12-07T02:38:14.359Z,77.77
2018-12-07T02:38:48.999Z,78.02
2018-12-07T02:39:23.662Z,77.88
2018-12-07T02:39:58.260Z,78.08
2018-12-07T02:40:33.036Z,77.95
2018-12-07T02:41:07.604Z,77.63
2018-12-07T02:41:42.254Z,77.66
2018-12-07T02:42:17.086Z,77.38
2018-12-07T02:42:51.803Z,77.62
2018-12-07T02:43:26.492Z,77.41
2018-12-07T02:44:01.573Z,77.43
2018-12-07T02:44:36.533Z,77.15
2018-12-07T02:45:11.977Z,77.50
2018-12-07T02:45:46.613Z,77.90
2018-12-07T02:46:21.838Z,77.64
2018-12-07T02:46:56.450Z,78.04
2018-12-07T02:47:31.091Z,78.13
2018-12-07T02:48:06.384Z,78.12
2018-12-07T02:48:40.985Z,78.36
2018-12-07T02:49:15.610Z,78.62
2018-12-07T02:49:50.294Z,78.50
2018-12-07T02:50:25.081Z,78.65
2018-12-07T02:50:59.696Z,78.65
2018-12-07T02:51:34.286Z,78.61
2018-12-07T02:52:08.897Z,79.08
2018-12-07T02:52:43.533Z,78.84
2018-12-07T02:53:18.267Z,78.83
2018-12-07T02:53:53.048Z,78.86
2018-12-07T02:54:27.794Z,78.88
2018-12-07T02:55:02.391Z,78.76
2018-12-07T02:55:37.022Z,78.66
2018-12-07T02:56:11.629Z,78.70
2018-12-07T02:56:46.273Z,78.68
2018-12-07T02:57:20.935Z,78.90
2018-12-07T02:57:55.880Z,79.10
2018-12-07T02:58:30.507Z,79.01
2018-12-07T02:59:05.246Z,79.08
2018-12-07T02:59:39.813Z,79.40
2018-12-07T03:00:15.395Z,79.54
2018-12-07T03:00:50.384Z,79.50
2018-12-07T03:01:25.075Z,79.27
2018-12-07T03:02:00.048Z,79.43
2018-12-07T03:02:34.643Z,79.34
2018-12-07T03:03:09.267Z,79.56
2018-12-07T03:03:43.971Z,79.28
2018-12-07T03:04:18.968Z,79.29
2018-12-07T03:04:53.585Z,79.56
2018-12-07T03:05:28.234Z,79.54
2018-12-07T03:06:02.837Z,79.43
2018-12-07T03:06:37.413Z,79.60
2018-12-07T03:07:12.070Z,80.09
2018-12-07T03:07:46.678Z,79.55
2018-12-07T03:08:21.646Z,79.78
2018-12-07T03:08:56.317Z,79.69
2018-12-07T03:09:30.923Z,79.92
2018-12-07T03:10:06.432Z,79.95
2018-12-07T03:10:41.114Z,80.03
2018-12-07T03:11:15.757Z,80.09
2018-12-07T03:11:50.739Z,79.83
2018-12-07T03:12:25.422Z,79.89
2018-12-07T03:13:00.020Z,80.00
2018-12-07T03:13:34.597Z,80.19
2018-12-07T03:14:09.193Z,80.10
2018-12-07T03:14:43.888Z,80.05
2018-12-07T03:15:18.573Z,80.00
2018-12-07T03:15:53.215Z,79.98
2018-12-07T03:16:27.870Z,80.39
2018-12-07T03:17:02.467Z,80.33
2018-12-07T03:17:37.062Z,80.20
2018-12-07T03:18:42.905Z,80.28
2018-12-07T03:19:17.625Z,80.79
2018-12-07T03:19:52.521Z,80.54
2018-12-07T03:20:27.182Z,80.78
2018-12-07T03:21:01.832Z,80.99
2018-12-07T03:21:36.412Z,80.62
2018-12-07T03:22:11.010Z,80.53
2018-12-07T03:22:45.663Z,80.83
2018-12-07T03:23:20.457Z,81.00
2018-12-07T03:23:55.169Z,80.59
2018-12-07T03:24:29.785Z,80.66
2018-12-07T03:25:05.787Z,80.74
2018-12-07T03:25:40.413Z,80.77
2018-12-07T03:26:15.085Z,80.54
2018-12-07T03:26:49.690Z,80.64
2018-12-07T03:27:24.281Z,80.81
2018-12-07T03:27:58.890Z,81.07
2018-12-07T03:28:33.473Z,80.72
2018-12-07T03:29:08.054Z,80.77
2018-12-07T03:29:42.644Z,80.45
2018-12-07T03:30:17.295Z,80.37
2018-12-07T03:30:52.019Z,80.67
2018-12-07T03:31:26.658Z,80.60
2018-12-07T03:32:01.271Z,80.64
2018-12-07T03:32:36.136Z,80.41
2018-12-07T03:33:10.834Z,80.48
2018-12-07T03:33:45.444Z,80.63
2018-12-07T03:34:20.118Z,80.87
2018-12-07T03:34:54.790Z,80.88
2018-12-07T03:35:29.398Z,80.87
2018-12-07T03:36:04.033Z,80.90
2018-12-07T03:36:38.742Z,80.96
2018-12-07T03:37:13.332Z,81.16
2018-12-07T03:37:47.947Z,80.73
2018-12-07T03:38:22.679Z,80.40
2018-12-07T03:38:57.252Z,80.41
2018-12-07T03:39:31.840Z,80.74
2018-12-07T03:40:07.358Z,80.75
2018-12-07T03:40:41.979Z,80.98
2018-12-07T03:41:16.892Z,81.18
2018-12-07T03:41:51.979Z,81.30
2018-12-07T03:42:26.566Z,81.25
2018-12-07T03:43:01.226Z,81.02
2018-12-07T03:43:35.842Z,80.94
2018-12-07T03:44:10.430Z,80.95
2018-12-07T03:44:45.111Z,80.62
2018-12-07T03:45:19.917Z,80.48
2018-12-07T03:45:54.618Z,80.55
2018-12-07T03:46:29.763Z,80.65
2018-12-07T03:47:04.869Z,80.54
2018-12-07T03:47:39.550Z,80.63
2018-12-07T03:48:14.173Z,80.91
2018-12-07T03:48:49.152Z,80.75
2018-12-07T03:49:23.957Z,80.74
2018-12-07T03:49:58.617Z,80.93
2018-12-07T03:50:33.233Z,81.31
2018-12-07T03:51:07.870Z,81.37
2018-12-07T03:51:42.500Z,81.21
2018-12-07T03:52:17.229Z,80.90
2018-12-07T03:52:51.941Z,80.83
2018-12-07T03:53:26.586Z,81.30
2018-12-07T03:55:04.531Z,81.30
2018-12-07T03:55:39.193Z,80.99
2018-12-07T03:56:13.838Z,81.16
2018-12-07T03:56:48.647Z,80.99
2018-12-07T03:57:23.465Z,80.85
2018-12-07T03:57:58.134Z,81.05
2018-12-07T03:58:32.793Z,81.00
2018-12-07T03:59:07.486Z,80.96
2018-12-07T03:59:42.126Z,81.13
2018-12-07T04:00:16.802Z,81.10
2018-12-07T04:01:54.600Z,81.41
2018-12-07T04:02:29.811Z,81.37
2018-12-07T04:03:04.416Z,81.35
2018-12-07T04:03:39.065Z,81.36
2018-12-07T04:04:14.261Z,81.36
2018-12-07T04:04:49.179Z,81.44
2018-12-07T04:05:23.828Z,81.40
2018-12-07T04:05:58.541Z,81.43
2018-12-07T04:06:33.382Z,81.41
2018-12-07T04:07:08.490Z,81.39
2018-12-07T04:07:43.159Z,81.57
2018-12-07T04:08:17.863Z,81.51
2018-12-07T04:08:52.564Z,81.58
2018-12-07T04:09:27.209Z,81.67
2018-12-07T04:10:01.840Z,81.70
2018-12-07T04:10:36.445Z,81.75
2018-12-07T04:11:11.084Z,81.81
2018-12-07T04:11:45.791Z,81.75
2018-12-07T04:12:20.582Z,81.68
2018-12-07T04:12:55.246Z,81.43
2018-12-07T04:13:29.941Z,81.65
2018-12-07T04:14:05.029Z,81.51
2018-12-07T04:14:39.641Z,81.77
2018-12-07T04:15:14.310Z,81.51
2018-12-07T04:15:49.395Z,81.53
2018-12-07T04:16:24.574Z,81.38
2018-12-07T04:16:59.413Z,81.44
2018-12-07T04:17:34.048Z,81.62
2018-12-07T04:18:08.923Z,81.50
2018-12-07T04:18:43.550Z,81.68
2018-12-07T04:19:18.381Z,81.34
2018-12-07T04:19:53.090Z,81.26
2018-12-07T04:20:27.701Z,80.97
2018-12-07T04:21:02.352Z,81.25
2018-12-07T04:21:36.977Z,81.59
2018-12-07T04:23:14.665Z,81.22
2018-12-07T04:23:49.659Z,81.39
2018-12-07T04:24:24.372Z,81.47
2018-12-07T04:24:59.075Z,81.42
2018-12-07T04:25:33.799Z,80.86
2018-12-07T04:26:08.451Z,81.27
2018-12-07T04:26:43.059Z,81.25
2018-12-07T04:27:17.784Z,81.21
2018-12-07T04:27:52.890Z,81.05
2018-12-07T04:28:27.536Z,81.00
2018-12-07T04:29:02.170Z,81.19
2018-12-07T04:29:36.778Z,81.22
2018-12-07T04:30:23.100Z,81.05
2018-12-07T04:30:57.823Z,81.11
2018-12-07T04:31:32.578Z,80.97
2018-12-07T04:32:07.254Z,80.75
2018-12-07T04:32:41.853Z,80.58
2018-12-07T04:33:16.646Z,80.52
2018-12-07T04:33:51.646Z,80.60
2018-12-07T04:34:26.836Z,80.37
2018-12-07T04:35:01.442Z,80.44
2018-12-07T04:35:36.056Z,80.32
2018-12-07T04:36:10.688Z,80.74
2018-12-07T04:36:45.314Z,80.48
2018-12-07T04:37:20.061Z,80.55
2018-12-07T04:37:55.050Z,80.58
2018-12-07T04:38:29.662Z,80.52
2018-12-07T04:39:06.554Z,80.71
2018-12-07T04:39:41.170Z,80.71
2018-12-07T04:40:16.399Z,80.66
2018-12-07T04:40:51.113Z,80.79
2018-12-07T04:41:25.809Z,80.64
2018-12-07T04:42:00.422Z,80.63
2018-12-07T04:42:35.229Z,80.31
2018-12-07T04:43:09.850Z,80.79
2018-12-07T04:43:44.547Z,80.53
2018-12-07T04:44:19.360Z,80.71
2018-12-07T04:44:54.165Z,80.66
2018-12-07T04:45:29.244Z,80.86
2018-12-07T04:46:04.342Z,80.86
2018-12-07T04:46:38.947Z,80.95
2018-12-07T04:47:13.553Z,80.85
2018-12-07T04:47:48.393Z,80.36
2018-12-07T04:48:23.127Z,79.96
2018-12-07T04:48:57.779Z,80.69
2018-12-07T04:49:32.381Z,80.81
2018-12-07T04:50:07.991Z,80.60
2018-12-07T04:50:42.572Z,80.54
2018-12-07T04:51:17.661Z,80.43
2018-12-07T04:51:52.531Z,80.41
2018-12-07T04:52:27.109Z,80.25
2018-12-07T04:53:01.700Z,79.88
2018-12-07T04:53:36.724Z,80.32
2018-12-07T04:54:11.336Z,80.58
2018-12-07T04:54:45.970Z,80.77
2018-12-07T04:55:20.915Z,80.78
2018-12-07T04:55:55.593Z,80.66
2018-12-07T04:56:30.306Z,80.53
2018-12-07T04:57:05.755Z,80.43
2018-12-07T04:57:40.368Z,80.47
2018-12-07T04:58:15.137Z,80.37
2018-12-07T04:58:50.148Z,80.44
2018-12-07T04:59:25.000Z,80.35
2018-12-07T04:59:59.861Z,80.44
2018-12-07T05:00:34.447Z,80.53
2018-12-07T05:01:09.342Z,80.71
2018-12-07T05:01:44.406Z,80.76
2018-12-07T05:02:19.166Z,81.02
2018-12-07T05:02:54.483Z,80.98
2018-12-07T05:03:29.080Z,81.08
2018-12-07T05:04:03.672Z,81.08
2018-12-07T05:04:38.248Z,81.27
2018-12-07T05:05:12.846Z,81.24
2018-12-07T05:05:48.668Z,81.31
2018-12-07T05:06:23.541Z,81.43
2018-12-07T05:06:58.204Z,81.63
2018-12-07T05:07:32.872Z,81.49
2018-12-07T05:08:07.483Z,81.12
2018-12-07T05:08:42.074Z,81.56
2018-12-07T05:09:16.761Z,81.41
2018-12-07T05:09:51.982Z,81.41
2018-12-07T05:10:26.608Z,81.26
2018-12-07T05:11:01.204Z,80.99
2018-12-07T05:11:35.907Z,81.62
2018-12-07T05:12:10.718Z,81.79
2018-12-07T05:12:45.904Z,81.84
2018-12-07T05:13:21.088Z,81.58
2018-12-07T05:13:55.738Z,81.75
2018-12-07T05:14:30.326Z,81.51
2018-12-07T05:15:06.396Z,81.63
2018-12-07T05:15:41.081Z,81.83
2018-12-07T05:16:15.714Z,82.05
2018-12-07T05:16:50.610Z,82.45
2018-12-07T05:17:25.355Z,82.18
2018-12-07T05:18:00.010Z,82.28
2018-12-07T05:18:34.595Z,82.16
2018-12-07T05:19:09.192Z,82.61
2018-12-07T05:19:43.807Z,82.15
2018-12-07T05:20:18.495Z,82.29
2018-12-07T05:20:53.244Z,82.11
2018-12-07T05:21:27.918Z,82.62
2018-12-07T05:22:02.550Z,82.19
2018-12-07T05:22:37.159Z,82.64
2018-12-07T05:23:12.493Z,82.61
2018-12-07T05:23:47.447Z,82.70
2018-12-07T05:24:22.839Z,82.37
2018-12-07T05:24:57.665Z,82.25
2018-12-07T05:25:32.466Z,82.07
2018-12-07T05:26:07.193Z,82.21
2018-12-07T05:26:41.834Z,82.21
2018-12-07T05:27:16.571Z,82.31
2018-12-07T05:27:51.587Z,82.21
2018-12-07T05:28:26.273Z,82.38
2018-12-07T05:29:01.309Z,82.35
2018-12-07T05:29:35.982Z,82.17
2018-12-07T05:30:10.736Z,82.00
2018-12-07T05:30:45.351Z,81.89
2018-12-07T05:31:20.118Z,81.77
2018-12-07T05:31:54.951Z,81.83
2018-12-07T05:32:29.597Z,81.73
2018-12-07T05:33:04.210Z,82.17
2018-12-07T05:33:38.953Z,82.08
2018-12-07T05:34:14.050Z,82.36
2018-12-07T05:34:48.701Z,82.47
2018-12-07T05:35:23.534Z,82.89
2018-12-07T05:35:58.328Z,83.05
2018-12-07T05:36:33.006Z,82.93
2018-12-07T05:37:07.622Z,82.72
2018-12-07T05:37:42.253Z,82.89
2018-12-07T05:38:17.387Z,82.97
2018-12-07T05:38:52.196Z,83.20
2018-12-07T05:39:28.364Z,83.23
2018-12-07T05:40:03.646Z,83.51
2018-12-07T05:40:38.261Z,83.69
2018-12-07T05:41:13.142Z,83.67
2018-12-07T05:41:47.843Z,83.71
2018-12-07T05:42:22.888Z,83.75
2018-12-07T05:42:57.596Z,83.31
2018-12-07T05:43:32.215Z,83.78
2018-12-07T05:44:06.883Z,83.68
2018-12-07T05:44:41.550Z,83.46
2018-12-07T05:45:16.327Z,83.31
2018-12-07T05:45:51.444Z,83.73
2018-12-07T05:46:26.145Z,83.33
2018-12-07T05:47:00.828Z,83.44
2018-12-07T05:47:35.898Z,83.16
2018-12-07T05:48:10.510Z,83.46
2018-12-07T05:48:45.117Z,83.16
2018-12-07T05:49:19.885Z,83.06
2018-12-07T05:49:54.924Z,83.21
2018-12-07T05:50:29.583Z,83.02
2018-12-07T05:51:04.195Z,82.95
2018-12-07T05:51:38.910Z,83.23
2018-12-07T05:52:13.663Z,82.61
2018-12-07T05:52:48.588Z,82.75
2018-12-07T05:53:23.630Z,82.62
2018-12-07T05:53:58.516Z,82.61
2018-12-07T05:54:33.238Z,82.79
2018-12-07T05:55:08.281Z,82.83
2018-12-07T05:55:42.895Z,82.57
2018-12-07T05:56:17.634Z,82.34
2018-12-07T05:56:52.605Z,82.26
2018-12-07T05:57:27.278Z,81.94
2018-12-07T05:58:02.317Z,81.51
2018-12-07T05:58:36.966Z,81.67
2018-12-07T05:59:11.561Z,81.36
2018-12-07T05:59:46.195Z,81.35
2018-12-07T06:00:20.885Z,81.28
2018-12-07T06:00:55.644Z,81.44
2018-12-07T06:01:30.420Z,81.15
2018-12-07T06:02:05.273Z,81.23
2018-12-07T06:02:40.003Z,81.25
2018-12-07T06:03:14.616Z,81.22
2018-12-07T06:03:49.378Z,80.86
2018-12-07T06:04:24.047Z,81.45
2018-12-07T06:04:58.736Z,81.32
2018-12-07T06:05:33.364Z,81.19
2018-12-07T06:06:08.635Z,81.43
2018-12-07T06:06:43.265Z,81.37
2018-12-07T06:07:18.160Z,81.63
2018-12-07T06:07:52.958Z,81.79
2018-12-07T06:08:27.654Z,81.71
2018-12-07T06:09:02.725Z,81.75
2018-12-07T06:09:37.504Z,81.84
2018-12-07T06:10:12.696Z,81.85
2018-12-07T06:10:47.681Z,81.91
2018-12-07T06:11:23.253Z,81.72
2018-12-07T06:11:58.373Z,82.04
2018-12-07T06:12:33.713Z,81.97
2018-12-07T06:13:08.373Z,82.20
2018-12-07T06:13:43.004Z,82.30
2018-12-07T06:14:17.753Z,82.34
2018-12-07T06:14:52.559Z,82.22
2018-12-07T06:15:27.444Z,82.27
2018-12-07T06:16:02.071Z,81.90
2018-12-07T06:16:36.752Z,81.98
2018-12-07T06:17:11.643Z,81.86
2018-12-07T06:17:46.344Z,81.75
2018-12-07T06:18:21.390Z,81.79
2018-12-07T06:18:56.291Z,81.67
2018-12-07T06:19:31.396Z,81.70
2018-12-07T06:20:06.860Z,81.76
2018-12-07T06:20:41.551Z,81.89
2018-12-07T06:21:16.328Z,81.42
2018-12-07T06:21:51.687Z,81.97
2018-12-07T06:22:26.510Z,81.54
2018-12-07T06:23:01.126Z,81.56
2018-12-07T06:23:35.871Z,81.62
2018-12-07T06:24:10.557Z,81.74
2018-12-07T06:24:45.274Z,81.72
2018-12-07T06:25:20.138Z,81.73
2018-12-07T06:25:54.930Z,81.70
2018-12-07T06:26:29.578Z,81.78
2018-12-07T06:27:04.633Z,81.86
2018-12-07T06:27:39.253Z,81.75
2018-12-07T06:28:13.932Z,81.71
2018-12-07T06:28:48.612Z,81.99
2018-12-07T06:29:23.441Z,81.70
2018-12-07T06:29:58.162Z,82.11
2018-12-07T06:30:33.187Z,82.15
2018-12-07T06:31:08.113Z,82.13
2018-12-07T06:31:42.709Z,81.82
2018-12-07T06:32:17.581Z,81.53
2018-12-07T06:32:52.294Z,81.52
2018-12-07T06:33:26.932Z,81.95
2018-12-07T06:34:01.645Z,81.88
2018-12-07T06:34:36.426Z,81.82
2018-12-07T06:35:11.109Z,81.62
2018-12-07T06:35:45.822Z,81.86
2018-12-07T06:36:20.825Z,82.27
2018-12-07T06:36:55.576Z,82.06
2018-12-07T06:37:30.231Z,81.74
2018-12-07T06:38:04.857Z,81.79
2018-12-07T06:38:39.493Z,81.79
2018-12-07T06:39:14.129Z,81.60
2018-12-07T06:39:49.023Z,81.41
2018-12-07T06:40:24.084Z,81.54
2018-12-07T06:40:58.762Z,80.87
2018-12-07T06:41:33.430Z,80.61
2018-12-07T06:42:08.180Z,79.99
2018-12-07T06:42:42.954Z,80.06
2018-12-07T06:43:17.950Z,80.12
2018-12-07T06:43:52.656Z,79.52
2018-12-07T06:44:27.490Z,79.35
2018-12-07T06:45:02.187Z,79.30
2018-12-07T06:45:36.907Z,78.89
2018-12-07T06:46:11.538Z,78.61
2018-12-07T06:46:46.275Z,78.89
2018-12-07T06:47:21.279Z,78.62
2018-12-07T06:47:56.115Z,78.52
2018-12-07T06:48:31.069Z,78.03
2018-12-07T06:49:11.400Z,77.49
2018-12-07T06:49:46.075Z,77.27
2018-12-07T06:50:21.528Z,77.40
2018-12-07T06:50:57.097Z,77.52
2018-12-07T06:51:31.708Z,77.36
2018-12-07T06:52:06.337Z,77.34
2018-12-07T06:52:40.976Z,77.56
2018-12-07T06:53:15.673Z,77.35
2018-12-07T06:53:50.554Z,77.08
2018-12-07T06:54:25.296Z,76.77
2018-12-07T06:54:59.950Z,77.25
2018-12-07T06:55:34.530Z,77.36
2018-12-07T06:56:09.156Z,76.62
2018-12-07T06:56:44.307Z,76.14
2018-12-07T06:57:19.447Z,76.41
2018-12-07T06:57:54.634Z,76.33
2018-12-07T06:58:29.269Z,76.17
2018-12-07T06:59:04.338Z,76.52
2018-12-07T06:59:38.935Z,75.63
2018-12-07T07:00:14.059Z,75.58
2018-12-07T07:00:48.737Z,75.49
2018-12-07T07:01:23.426Z,75.64
2018-12-07T07:01:58.050Z,75.89
2018-12-07T07:02:32.674Z,75.80
2018-12-07T07:03:07.273Z,75.84
2018-12-07T07:03:41.874Z,76.34
2018-12-07T07:04:16.749Z,75.74
2018-12-07T07:04:51.673Z,75.87
2018-12-07T07:05:26.335Z,76.17
2018-12-07T07:06:00.957Z,76.07
2018-12-07T07:06:35.623Z,75.99
2018-12-07T07:07:10.244Z,76.21
2018-12-07T07:07:44.972Z,75.62
2018-12-07T07:08:20.047Z,75.91
2018-12-07T07:08:54.712Z,76.14
2018-12-07T07:09:29.342Z,75.30
2018-12-07T07:10:04.910Z,75.24
2018-12-07T07:10:39.541Z,75.49
2018-12-07T07:11:14.198Z,75.41
2018-12-07T07:11:48.981Z,75.30
2018-12-07T07:12:23.801Z,75.31
2018-12-07T07:12:58.659Z,75.89
2018-12-07T07:13:33.242Z,75.67
2018-12-07T07:14:07.881Z,76.08
2018-12-07T07:14:42.483Z,76.21
2018-12-07T07:15:17.555Z,75.84
2018-12-07T07:15:52.295Z,75.85
2018-12-07T07:16:27.031Z,75.66
2018-12-07T07:17:01.640Z,75.86
2018-12-07T07:17:36.352Z,76.12
2018-12-07T07:18:10.964Z,75.93
2018-12-07T07:18:45.870Z,76.03
2018-12-07T07:19:20.786Z,76.16
2018-12-07T07:19:55.810Z,76.48
2018-12-07T07:20:30.419Z,76.47
2018-12-07T07:21:05.017Z,75.81
2018-12-07T07:21:39.690Z,75.69
2018-12-07T07:22:14.331Z,75.48
2018-12-07T07:22:49.284Z,76.20
2018-12-07T07:23:24.135Z,76.38
2018-12-07T07:23:58.753Z,76.20
2018-12-07T07:24:33.363Z,76.23
2018-12-07T07:25:08.726Z,76.29
2018-12-07T07:25:43.344Z,76.87
2018-12-07T07:26:18.151Z,76.91
2018-12-07T07:26:52.886Z,77.39
2018-12-07T07:27:27.485Z,77.75
2018-12-07T07:28:02.088Z,77.43
2018-12-07T07:28:36.717Z,77.55
2018-12-07T07:29:11.417Z,77.69
2018-12-07T07:29:46.052Z,78.15
2018-12-07T07:30:20.791Z,77.36
2018-12-07T07:30:55.516Z,77.47
2018-12-07T07:31:30.129Z,77.78
2018-12-07T07:32:05.276Z,77.73
2018-12-07T07:32:39.930Z,77.75
2018-12-07T07:33:15.064Z,78.10
2018-12-07T07:33:49.734Z,78.08